首页
METAR-TAF:

METAR-TAF

机场 :

巴格达, 伊拉克

巴格達國際機場

纬度: 33-15-45N, 经度: 44-14-04E, 海拔: 35米

当前天气观测

该预报发布于27分钟前的14:00 UTC
风速15节,风向东转东南
温度 15°C
湿度 51%
气压 1013 hPa
能見度: 6000
, 浮尘

METAR: ORBI 221400Z 12015KT 6000 BL DU NSC 15/05 Q1013 NOSIG

时间: 17:27 (14:27 UTC)

预报

该预报发布于4小时和27分钟前的10:00 UTC
预报有效从22日的 12点(UTC)到 23日的 12点(UTC)
风速10节,风向南转南东
能見度: 4000
散云层高于3000英尺
浮尘

TAF: ORBI 221000Z 2212/2312 15010KT 4000 DU SCT030

超过4000个机场的气象观测和天气预报(METAR&TAF报告)。

可查询的气象台以黄色和红色小点在地图上表示。

将鼠标移到小点上方,可查看气象台名称。

然后点击查看天气观测和预报。

如需切换地图:点击带黑十字的绿色按钮放大地图;点击带横线的绿色按钮缩小地图;或者点击绿色箭头查看邻近地区的地图。


METAR-TAF: